Târgu Mureş, România

12:14 AM EEST on iulie 31, 2014 (GMT +0300)
Comuna Craciunesti (IMUREMUR2) Elev 1033 ft | 46.46 °N, 24.58 °E | Change Station

Current weather conditions updated 20 seconds ago

Clear
Cer senin
71.8 °F
Feels Like 74 °F
N
2.0
Vânt variabil Vânt from est
Gusts 3.0 mph

Today is forecast to be Much Cooler than yesterday.

astăzi
High -- | Low -- °F
--% Chance of Precip.
Ieri
High -- | Low -- °F
Precip. -- inch
6:01 AM 8:54 PM
Semilună în creştere, 13% visible
Presiunea 29.83 inch
Vizibilitatea -9999.0 mile
Nori
Indicele de căldură 74 °F
Punctul de rouă 62 °F
Umiditatea 72%
Precipitaţii 0.00 inch
Adâncimea zăpezii Not available.
UV 0.0 out of 12
Pollen Not available.
Calitatea aerului Not available.
Flu Activity Not available.
METAR LRTM 302100Z 07006KT 060V230 CAVOK 19/18 Q1010

More Conditions Fewer Conditions

Presiunea 29.83 inch
Vizibilitatea -9999.0 mile
Nori
Indicele de căldură 74 °F
Punctul de rouă 62 °F
Umiditatea 72%
Precipitaţii 0.00 inch
Adâncimea zăpezii Not available.
UV 0.0 out of 12
Pollen Not available.
Calitatea aerului Not available.
Flu Activity Not available.
METAR LRTM 302100Z 07006KT 060V230 CAVOK 19/18 Q1010

More Conditions Fewer Conditions

10-Day Weather Forecast

Almanac

Astronomie

Jul. 31, 2014 Răsărit Apus
Timpul Actual 6:01 AM EEST 8:54 PM EEST
Crepusculul Civil 5:25 AM EEST 9:29 PM EEST
Crepusculul nautic 4:40 AM EEST 10:14 PM EEST
Răsărit Astronomic 3:46 AM EEST 11:07 PM EEST
Luna 10:28 AM EEST (7/31) 10:38 PM EEST (7/31)
Durata zilei lumină 16h 03m
Lungimea zilei
14h 53m
Tomorrow will be 2m 32s shorter.
Semilună în creştere, 13% of the Moon is Illuminated
Jul 30
Semilună în creştere
Aug 3
Primul pătrar
Aug 10
Lună plină
Aug 17
Ultimul pătrar
Aug 25
New

Yesterday's Extremes

Country Highs Country Lows

Community

WunderPhotos

Upload Photos

1,739,178 photos uploaded!

WunderBlogs® & News

By Dr. Jeff Masters
Director of Meteorology, Weather Underground
By Kari Strenfel
Meteorologist, Weather Underground
By Christopher C. Burt
Weather Historian, Weather Underground
July 30, 2014
July 30, 2014
July 30, 2014

Nearby

Calitatea aerului

Not available.

Adâncimea zapezii

Not available.

Earthquake Activity

Oraş Distance Mag. Time & Date
No recent earthquake activity has been reported nearby.
Minimum magnitude displayed is 2.5.

Coastal Water Temperatures

Locul Temperatura
No Stations Reporting

Nearby Weather Stations

Locaţia staţiei Temp Indicele de căldură Punctul de rouă Umiditatea Vânt Precip. Elev Actualizare Type
Comuna Craciunesti, Mureș 71.8 °F 74 °F 62 °F 72% est  la  2.0 mph 0.00 inch / hr 1033 ft 12:14 AM EEST Normal

Show More Stations Show Fewer Stations